createdAt,value
2019-04-05T00:00:54.223Z,55.53
2019-04-05T00:03:24.061Z,46.23
2019-04-05T00:05:53.886Z,51.97
2019-04-05T00:08:23.683Z,51.37
2019-04-05T00:10:53.678Z,54.87
2019-04-05T00:13:23.499Z,51.23
2019-04-05T00:15:53.386Z,57.67
2019-04-05T00:18:23.212Z,51.33
2019-04-05T00:20:53.000Z,56.83
2019-04-05T00:23:22.849Z,50.23
2019-04-05T00:25:52.675Z,54.90
2019-04-05T00:28:22.501Z,59.57
2019-04-05T00:30:52.294Z,60.53
2019-04-05T00:33:24.958Z,50.70
2019-04-05T00:35:54.858Z,52.33
2019-04-05T00:38:24.806Z,54.30
2019-04-05T00:40:54.784Z,59.10
2019-04-05T00:43:24.708Z,50.43
2019-04-05T00:45:54.552Z,55.33
2019-04-05T00:48:24.512Z,48.43
2019-04-05T00:50:54.348Z,56.53
2019-04-05T00:53:24.256Z,55.90
2019-04-05T00:55:54.509Z,51.03
2019-04-05T00:58:24.330Z,47.23
2019-04-05T01:00:54.107Z,54.60
2019-04-05T01:03:23.972Z,51.30
2019-04-05T01:05:53.804Z,57.77
2019-04-05T01:08:23.614Z,56.70
2019-04-05T01:10:53.585Z,58.67
2019-04-05T01:13:23.500Z,55.80
2019-04-05T01:15:53.296Z,59.70
2019-04-05T01:18:23.130Z,60.13
2019-04-05T01:20:54.489Z,61.13
2019-04-05T01:23:25.764Z,59.50
2019-04-05T01:25:58.542Z,55.30
2019-04-05T01:28:28.424Z,61.07
2019-04-05T01:30:58.236Z,59.57
2019-04-05T01:33:28.053Z,62.10
2019-04-05T01:35:59.309Z,54.23
2019-04-05T01:38:29.358Z,57.90
2019-04-05T01:41:00.168Z,53.60
2019-04-05T01:43:29.938Z,60.37
2019-04-05T01:46:00.575Z,64.60
2019-04-05T01:48:30.452Z,52.60
2019-04-05T01:51:00.271Z,57.80
2019-04-05T01:53:30.132Z,55.77
2019-04-05T01:56:00.021Z,50.97
2019-04-05T01:58:29.981Z,62.47
2019-04-05T02:00:59.806Z,60.23
2019-04-05T02:03:29.803Z,53.87
2019-04-05T02:05:59.631Z,58.10
2019-04-05T02:08:30.169Z,57.17
2019-04-05T02:10:59.934Z,55.40
2019-04-05T02:13:29.739Z,59.23
2019-04-05T02:16:06.244Z,61.03
2019-04-05T02:18:31.063Z,59.03
2019-04-05T02:21:00.868Z,60.00
2019-04-05T02:23:30.666Z,58.40
2019-04-05T02:26:00.559Z,63.60
2019-04-05T02:28:30.620Z,58.03
2019-04-05T02:31:00.417Z,54.07
2019-04-05T02:33:33.004Z,55.50
2019-04-05T02:36:03.378Z,58.17
2019-04-05T02:38:33.211Z,56.73
2019-04-05T02:41:03.765Z,54.80
2019-04-05T02:43:35.633Z,55.47
2019-04-05T02:46:22.217Z,56.43
2019-04-05T02:48:39.089Z,58.10
2019-04-05T02:51:10.525Z,61.37
2019-04-05T02:53:40.296Z,55.90
2019-04-05T02:56:10.759Z,58.87
2019-04-05T02:58:41.266Z,60.63
2019-04-05T03:01:11.510Z,60.37
2019-04-05T03:03:41.839Z,58.20
2019-04-05T03:06:11.991Z,57.20
2019-04-05T03:08:43.069Z,59.30
2019-04-05T03:11:18.973Z,59.93
2019-04-05T03:13:51.847Z,58.53
2019-04-05T03:16:39.214Z,57.30
2019-04-05T03:19:07.824Z,63.40
2019-04-05T03:21:40.907Z,50.87
2019-04-05T03:24:13.818Z,54.30
2019-04-05T03:26:46.570Z,57.90
2019-04-05T03:29:16.652Z,54.90
2019-04-05T03:31:47.920Z,59.40
2019-04-05T03:34:17.856Z,55.83
2019-04-05T03:36:51.453Z,59.03
2019-04-05T03:39:19.550Z,59.20
2019-04-05T03:41:49.964Z,56.80
2019-04-05T03:44:23.014Z,55.27
2019-04-05T03:46:57.220Z,62.43
2019-04-05T03:49:23.985Z,55.43
2019-04-05T03:51:54.060Z,53.87
2019-04-05T03:54:23.900Z,59.93
2019-04-05T03:56:53.873Z,60.40
2019-04-05T03:59:23.803Z,57.23
2019-04-05T04:01:53.837Z,59.20
2019-04-05T04:04:23.840Z,59.13
2019-04-05T04:06:53.709Z,60.97
2019-04-05T04:09:23.528Z,59.97
2019-04-05T04:11:53.674Z,54.00
2019-04-05T04:14:23.836Z,60.07
2019-04-05T04:17:11.020Z,57.90
2019-04-05T04:19:26.639Z,56.90
2019-04-05T04:22:15.902Z,58.20
2019-04-05T04:24:45.916Z,64.17
2019-04-05T04:27:16.007Z,57.67
2019-04-05T04:29:45.835Z,68.13
2019-04-05T04:32:15.924Z,65.77
2019-04-05T04:34:45.871Z,59.07
2019-04-05T04:37:15.734Z,54.40
2019-04-05T04:39:45.659Z,55.30
2019-04-05T04:42:15.879Z,61.50
2019-04-05T04:44:45.878Z,59.53
2019-04-05T04:47:26.470Z,59.50
2019-04-05T04:49:48.858Z,54.70
2019-04-05T04:52:18.987Z,57.43
2019-04-05T04:54:48.861Z,58.33
2019-04-05T04:57:18.676Z,55.70
2019-04-05T04:59:49.030Z,58.37
2019-04-05T05:02:19.140Z,56.90
2019-04-05T05:04:49.439Z,62.03
2019-04-05T05:07:19.263Z,62.60
2019-04-05T05:09:49.139Z,63.33
2019-04-05T05:12:19.497Z,61.30
2019-04-05T05:14:49.377Z,62.37
2019-04-05T05:17:19.488Z,65.93
2019-04-05T05:19:49.388Z,61.80
2019-04-05T05:22:19.346Z,64.80
2019-04-05T05:24:49.613Z,60.10
2019-04-05T05:27:19.783Z,54.70
2019-04-05T05:29:49.906Z,56.17
2019-04-05T05:32:19.870Z,59.20
2019-04-05T05:35:01.326Z,60.60
2019-04-05T05:37:21.686Z,60.63
2019-04-05T05:39:51.474Z,58.37
2019-04-05T05:42:21.279Z,56.57
2019-04-05T05:44:51.393Z,61.93
2019-04-05T05:47:21.199Z,59.93
2019-04-05T05:49:50.974Z,55.33
2019-04-05T05:52:21.385Z,63.47
2019-04-05T05:54:51.161Z,64.20
2019-04-05T05:57:21.049Z,61.83
2019-04-05T05:59:50.859Z,60.97
2019-04-05T06:02:20.701Z,59.67
2019-04-05T06:04:50.600Z,58.50
2019-04-05T06:07:20.406Z,65.00
2019-04-05T06:09:50.584Z,61.43
2019-04-05T06:12:20.502Z,60.90
2019-04-05T06:14:50.333Z,59.63
2019-04-05T06:17:20.139Z,59.67
2019-04-05T06:19:49.961Z,59.07
2019-04-05T06:22:19.740Z,65.23
2019-04-05T06:24:49.566Z,60.50
2019-04-05T06:27:19.402Z,71.33
2019-04-05T06:29:49.370Z,58.80
2019-04-05T06:32:19.647Z,60.97
2019-04-05T06:34:49.667Z,65.67
2019-04-05T06:37:19.443Z,62.77
2019-04-05T06:39:49.392Z,64.80
2019-04-05T06:42:19.367Z,61.90
2019-04-05T06:44:49.196Z,58.73
2019-04-05T06:47:19.300Z,68.40
2019-04-05T06:49:49.139Z,62.03
2019-04-05T06:52:18.889Z,58.13
2019-04-05T06:54:48.630Z,61.87
2019-04-05T06:57:18.579Z,67.90
2019-04-05T06:59:48.438Z,68.00
2019-04-05T07:02:18.612Z,64.70
2019-04-05T07:04:48.686Z,61.97
2019-04-05T07:07:18.530Z,63.30
2019-04-05T07:09:48.405Z,69.50
2019-04-05T07:12:20.556Z,71.63
2019-04-05T07:14:49.906Z,82.77
2019-04-05T07:17:19.691Z,77.30
2019-04-05T07:19:49.514Z,81.53
2019-04-05T07:22:35.602Z,99.10
2019-04-05T07:24:50.668Z,87.00
2019-04-05T07:27:20.532Z,85.97
2019-04-05T07:29:50.358Z,84.50
2019-04-05T07:32:21.122Z,83.27
2019-04-05T07:34:51.005Z,85.03
2019-04-05T07:37:22.783Z,81.47
2019-04-05T07:39:54.325Z,76.00
2019-04-05T07:42:24.574Z,82.53
2019-04-05T07:44:54.435Z,85.63
2019-04-05T07:47:24.277Z,74.80
2019-04-05T07:49:55.526Z,72.00
2019-04-05T07:52:25.597Z,72.60
2019-04-05T07:54:56.885Z,73.70
2019-04-05T07:57:27.215Z,69.27
2019-04-05T07:59:58.539Z,70.30
2019-04-05T08:02:28.308Z,63.70
2019-04-05T08:04:58.270Z,66.40
2019-04-05T08:07:30.985Z,68.30
2019-04-05T08:10:03.004Z,64.30
2019-04-05T08:12:32.707Z,65.97
2019-04-05T08:15:03.038Z,63.13
2019-04-05T08:17:32.876Z,70.20
2019-04-05T08:20:02.661Z,62.77
2019-04-05T08:22:32.553Z,63.33
2019-04-05T08:25:02.680Z,67.77
2019-04-05T08:27:32.424Z,61.93
2019-04-05T08:30:02.188Z,58.90
2019-04-05T08:32:32.079Z,57.53
2019-04-05T08:35:01.918Z,60.80
2019-04-05T08:37:31.801Z,65.53
2019-04-05T08:40:01.632Z,52.77
2019-04-05T08:42:31.487Z,53.83
2019-04-05T08:45:01.349Z,58.30
2019-04-05T08:47:31.168Z,58.77
2019-04-05T08:50:00.914Z,51.83
2019-04-05T08:52:30.691Z,52.67
2019-04-05T08:55:00.512Z,59.83
2019-04-05T08:57:30.357Z,55.73
2019-04-05T09:00:00.244Z,61.17
2019-04-05T09:02:30.320Z,55.63
2019-04-05T09:05:00.082Z,56.33
2019-04-05T09:07:29.980Z,59.23
2019-04-05T09:10:01.490Z,56.20
2019-04-05T09:12:34.938Z,54.53
2019-04-05T09:15:08.190Z,54.53
2019-04-05T09:17:39.612Z,54.20
2019-04-05T09:20:09.580Z,52.70
2019-04-05T09:22:40.876Z,54.33
2019-04-05T09:25:10.733Z,63.10
2019-04-05T09:27:40.653Z,53.37
2019-04-05T09:30:11.054Z,53.33
2019-04-05T09:32:41.046Z,52.50
2019-04-05T09:35:10.956Z,49.27
2019-04-05T09:37:40.732Z,52.33
2019-04-05T09:40:10.569Z,48.27
2019-04-05T09:42:40.442Z,48.50
2019-04-05T09:45:10.229Z,47.10
2019-04-05T09:47:40.188Z,47.90
2019-04-05T09:50:10.632Z,50.07
2019-04-05T09:52:40.397Z,45.47
2019-04-05T09:55:11.382Z,52.77
2019-04-05T09:57:41.156Z,43.80
2019-04-05T10:00:15.506Z,49.97
2019-04-05T10:02:45.444Z,49.10
2019-04-05T10:05:15.331Z,45.43
2019-04-05T10:07:54.823Z,52.67
2019-04-05T10:10:17.151Z,50.27
2019-04-05T10:12:46.986Z,49.83
2019-04-05T10:15:16.776Z,47.53
2019-04-05T10:17:46.554Z,44.77
2019-04-05T10:20:22.485Z,47.23
2019-04-05T10:22:57.094Z,47.30
2019-04-05T10:25:27.121Z,46.50
2019-04-05T10:27:57.385Z,50.10
2019-04-05T10:30:27.280Z,43.70
2019-04-05T10:32:57.105Z,52.97
2019-04-05T10:35:26.886Z,53.17
2019-04-05T10:37:58.286Z,49.00
2019-04-05T10:40:28.164Z,55.07
2019-04-05T10:42:58.155Z,50.50
2019-04-05T10:45:27.940Z,63.50
2019-04-05T10:47:57.725Z,65.57
2019-04-05T10:50:27.613Z,54.33
2019-04-05T10:52:57.469Z,51.50
2019-04-05T10:55:27.262Z,45.53
2019-04-05T10:57:57.184Z,52.57
2019-04-05T11:00:30.184Z,57.03
2019-04-05T11:03:00.122Z,54.97
2019-04-05T11:05:29.923Z,46.60
2019-04-05T11:07:59.872Z,46.93
2019-04-05T11:10:29.660Z,46.03
2019-04-05T11:12:59.478Z,49.77
2019-04-05T11:15:31.006Z,45.83
2019-04-05T11:18:01.016Z,44.37
2019-04-05T11:20:31.015Z,40.63
2019-04-05T11:23:00.827Z,41.37
2019-04-05T11:25:30.590Z,45.13
2019-04-05T11:28:00.458Z,50.40
2019-04-05T11:30:41.918Z,46.13
2019-04-05T11:33:11.936Z,39.73
2019-04-05T11:35:42.011Z,39.23
2019-04-05T11:38:12.948Z,40.50
2019-04-05T11:40:43.536Z,38.87
2019-04-05T11:43:13.443Z,42.20
2019-04-05T11:45:44.472Z,45.10
2019-04-05T11:48:14.522Z,42.40
2019-04-05T11:50:44.441Z,42.80
2019-04-05T11:53:14.355Z,46.33
2019-04-05T11:55:46.518Z,45.60
2019-04-05T11:58:15.624Z,49.80
2019-04-05T12:00:47.063Z,49.73
2019-04-05T12:03:27.396Z,55.67
2019-04-05T12:05:57.261Z,48.13
2019-04-05T12:08:27.121Z,50.47
2019-04-05T12:10:57.004Z,44.90
2019-04-05T12:13:26.799Z,48.43
2019-04-05T12:15:58.171Z,47.80
2019-04-05T12:18:28.176Z,59.73
2019-04-05T12:21:00.572Z,49.20
2019-04-05T12:23:32.537Z,55.00
2019-04-05T12:26:03.817Z,53.30
2019-04-05T12:28:32.802Z,57.93
2019-04-05T12:31:02.478Z,49.20
2019-04-05T12:33:32.444Z,57.20
2019-04-05T12:36:02.569Z,65.73
2019-04-05T12:38:35.153Z,65.60
2019-04-05T12:41:05.649Z,62.77
2019-04-05T12:43:35.526Z,60.00
2019-04-05T12:46:06.200Z,64.23
2019-04-05T12:48:35.986Z,61.63
2019-04-05T12:51:06.006Z,58.10
2019-04-05T12:53:35.874Z,60.80
2019-04-05T12:56:06.043Z,61.73
2019-04-05T12:58:36.244Z,55.97
2019-04-05T13:01:08.285Z,54.57
2019-04-05T13:03:37.720Z,54.37
2019-04-05T13:06:07.527Z,57.17
2019-04-05T13:08:37.309Z,58.67
2019-04-05T13:11:07.237Z,55.70
2019-04-05T13:13:36.983Z,49.97
2019-04-05T13:16:09.904Z,50.93
2019-04-05T13:18:38.309Z,50.87
2019-04-05T13:21:15.279Z,56.53
2019-04-05T13:23:39.534Z,57.17
2019-04-05T13:26:11.464Z,54.03
2019-04-05T13:28:40.822Z,55.63
2019-04-05T13:31:10.610Z,55.50
2019-04-05T13:33:40.616Z,54.80
2019-04-05T13:36:10.655Z,52.77
2019-04-05T13:38:40.489Z,54.07
2019-04-05T13:41:10.337Z,52.30
2019-04-05T13:43:40.207Z,48.83
2019-04-05T13:46:21.319Z,54.97
2019-04-05T13:48:41.623Z,59.30
2019-04-05T13:51:12.905Z,53.83
2019-04-05T13:53:43.108Z,57.67
2019-04-05T13:56:12.944Z,55.70
2019-04-05T13:58:46.165Z,71.13
2019-04-05T14:01:14.346Z,53.93
2019-04-05T14:03:44.143Z,62.10
2019-04-05T14:06:13.972Z,50.90
2019-04-05T14:08:43.765Z,52.53
2019-04-05T14:11:13.597Z,50.33
2019-04-05T14:13:43.419Z,55.13
2019-04-05T14:16:13.315Z,60.70
2019-04-05T14:18:49.373Z,51.33
2019-04-05T14:21:14.546Z,52.87
2019-04-05T14:23:44.365Z,51.33
2019-04-05T14:26:14.207Z,53.90
2019-04-05T14:28:44.051Z,57.47
2019-04-05T14:31:13.829Z,49.33
2019-04-05T14:33:43.651Z,61.87
2019-04-05T14:36:13.697Z,54.60
2019-04-05T14:38:43.489Z,52.87
2019-04-05T14:41:13.259Z,54.07
2019-04-05T14:43:45.057Z,49.17
2019-04-05T14:46:14.394Z,57.53
2019-04-05T14:48:44.199Z,60.37
2019-04-05T14:51:13.937Z,49.57
2019-04-05T14:53:43.770Z,56.70
2019-04-05T14:56:13.872Z,53.33
2019-04-05T14:58:43.667Z,56.63
2019-04-05T15:01:15.536Z,59.23
2019-04-05T15:03:44.950Z,56.50
2019-04-05T15:06:14.847Z,56.30
2019-04-05T15:08:47.591Z,53.07
2019-04-05T15:11:16.088Z,49.77
2019-04-05T15:13:45.879Z,55.80
2019-04-05T15:16:15.693Z,56.53
2019-04-05T15:18:45.484Z,54.37
2019-04-05T17:22:02.120Z,54.13
2019-04-05T17:24:32.447Z,47.50
2019-04-05T17:27:02.815Z,61.53
2019-04-05T17:29:33.034Z,60.10
2019-04-05T17:32:03.315Z,57.33
2019-04-05T17:34:33.533Z,53.97
2019-04-05T17:37:03.754Z,56.07
2019-04-05T17:39:34.285Z,58.53
2019-04-05T17:42:10.342Z,56.37
2019-04-05T17:44:40.565Z,57.93
2019-04-05T17:47:10.892Z,63.17
2019-04-05T17:49:41.006Z,55.90
2019-04-05T17:52:11.130Z,54.53
2019-04-05T17:54:41.246Z,60.23
2019-04-05T17:57:11.754Z,55.73
2019-04-05T17:59:42.175Z,52.17
2019-04-05T18:02:12.327Z,54.90
2019-04-05T18:04:42.442Z,66.07
2019-04-05T18:07:19.011Z,53.97
2019-04-05T18:09:49.335Z,60.73
2019-04-05T18:12:19.461Z,58.20
2019-04-05T18:14:50.089Z,51.57
2019-04-05T18:17:20.515Z,52.97
2019-04-05T18:19:50.835Z,54.10
2019-04-05T18:22:20.955Z,65.53
2019-04-05T18:24:51.278Z,57.13
2019-04-05T18:27:21.498Z,56.57
2019-04-05T18:29:51.831Z,53.83
2019-04-05T18:32:21.876Z,62.57
2019-04-05T18:34:52.164Z,54.80
2019-04-05T18:37:22.490Z,54.40
2019-04-05T18:39:53.153Z,53.23
2019-04-05T18:42:23.348Z,52.83
2019-04-05T18:44:56.534Z,55.07
2019-04-05T18:47:26.762Z,57.40
2019-04-05T18:50:02.960Z,54.60
2019-04-05T18:52:28.939Z,56.03
2019-04-05T18:54:59.263Z,59.00
2019-04-05T18:57:29.592Z,57.07
2019-04-05T18:59:59.706Z,52.73
2019-04-05T19:02:29.937Z,55.67
2019-04-05T19:05:00.047Z,58.53
2019-04-05T19:07:30.214Z,51.67
2019-04-05T19:10:00.599Z,52.57
2019-04-05T19:12:30.951Z,53.27
2019-04-05T19:15:01.280Z,58.97
2019-04-05T19:17:31.575Z,60.80
2019-04-05T19:20:02.012Z,51.00
2019-04-05T19:22:32.312Z,50.40
2019-04-05T19:25:07.862Z,51.40
2019-04-05T19:27:41.258Z,48.37
2019-04-05T19:50:26.093Z,53.30
2019-04-05T19:52:56.381Z,53.60
2019-04-05T19:55:26.598Z,54.83
2019-04-05T19:57:56.716Z,58.30
2019-04-05T20:00:26.972Z,57.27
2019-04-05T20:02:57.158Z,58.20
2019-04-05T20:05:27.384Z,56.60
2019-04-05T20:07:57.606Z,59.13
2019-04-05T20:10:27.722Z,58.97
2019-04-05T20:13:00.712Z,55.90
2019-04-05T20:15:31.033Z,61.33
2019-04-05T20:18:01.457Z,58.43
2019-04-05T20:20:31.712Z,54.97
2019-04-05T20:23:01.916Z,55.27
2019-04-05T20:25:32.224Z,60.37
2019-04-05T20:28:02.352Z,55.20
2019-04-05T20:30:32.465Z,65.07
2019-04-05T20:33:02.684Z,57.50
2019-04-05T20:35:32.805Z,55.70
2019-04-05T20:38:02.935Z,61.03
2019-04-05T20:40:33.147Z,58.90
2019-04-05T20:43:03.680Z,62.90
2019-04-05T20:45:33.817Z,69.40
2019-04-05T20:48:03.913Z,57.83
2019-04-05T20:50:37.043Z,62.70
2019-04-05T20:53:07.225Z,59.43
2019-04-05T20:55:40.209Z,63.93
2019-04-05T20:58:11.605Z,64.47
2019-04-05T21:00:44.544Z,70.37
2019-04-05T21:03:14.663Z,59.80
2019-04-05T21:05:44.782Z,62.30
2019-04-05T21:08:15.004Z,67.50
2019-04-05T21:10:45.129Z,57.07
2019-04-05T21:13:15.181Z,63.10
2019-04-05T21:15:45.267Z,65.07
2019-04-05T21:18:15.377Z,67.80
2019-04-05T21:20:46.382Z,64.90
2019-04-05T21:23:16.653Z,60.90
2019-04-05T21:25:47.502Z,70.73
2019-04-05T21:28:17.698Z,58.93
2019-04-05T21:30:47.823Z,67.40
2019-04-05T21:33:17.947Z,61.60
2019-04-05T21:35:48.679Z,67.77
2019-04-05T21:38:18.802Z,59.30
2019-04-05T21:40:48.908Z,70.33
2019-04-05T21:43:19.030Z,69.83
2019-04-05T21:45:49.251Z,64.53
2019-04-05T21:48:19.377Z,66.27
2019-04-05T21:50:49.492Z,62.30
2019-04-05T21:53:19.818Z,67.40
2019-04-05T21:55:49.934Z,72.43
2019-04-05T21:58:20.253Z,63.83
2019-04-05T22:00:52.632Z,66.43
2019-04-05T22:03:22.849Z,69.60
2019-04-05T22:05:52.968Z,74.67
2019-04-05T22:08:23.295Z,76.07
2019-04-05T22:10:53.616Z,70.93
2019-04-05T22:13:23.943Z,68.57
2019-04-05T22:15:54.572Z,71.67
2019-04-05T22:18:24.791Z,68.73
2019-04-05T22:20:55.119Z,69.97
2019-04-05T22:23:25.236Z,68.90
2019-04-05T22:25:55.359Z,66.43
2019-04-05T22:28:25.679Z,65.73
2019-04-05T22:30:55.901Z,62.30
2019-04-05T22:33:26.132Z,77.50
2019-04-05T22:35:56.346Z,79.53
2019-04-05T22:38:26.670Z,76.90
2019-04-05T22:40:56.788Z,76.47
2019-04-05T22:43:27.053Z,64.77
2019-04-05T22:45:57.334Z,69.77
2019-04-05T22:48:27.458Z,74.13
2019-04-05T22:50:57.674Z,77.27
2019-04-05T22:53:27.792Z,74.40
2019-04-05T22:55:57.913Z,64.83
2019-04-05T22:58:28.032Z,70.17
2019-04-05T23:00:58.156Z,71.27
2019-04-05T23:03:28.472Z,74.17
2019-04-05T23:05:58.696Z,76.37
2019-04-05T23:08:28.816Z,70.93
2019-04-05T23:10:59.036Z,70.37
2019-04-05T23:13:31.933Z,65.30
2019-04-05T23:16:02.245Z,70.43
2019-04-05T23:18:32.366Z,73.43
2019-04-05T23:21:02.483Z,73.67
2019-04-05T23:23:32.702Z,75.83
2019-04-05T23:26:03.033Z,62.97
2019-04-05T23:28:33.146Z,67.57
2019-04-05T23:31:03.472Z,68.03
2019-04-05T23:33:33.596Z,76.07
2019-04-05T23:36:04.017Z,60.87
2019-04-05T23:38:34.171Z,72.20
2019-04-05T23:41:04.393Z,70.20
2019-04-05T23:43:36.329Z,73.30
2019-04-05T23:46:06.346Z,70.73
2019-04-05T23:48:36.565Z,77.00
2019-04-05T23:51:06.679Z,69.17
2019-04-05T23:53:36.695Z,73.70
2019-04-05T23:56:06.920Z,71.07
2019-04-05T23:58:37.033Z,81.37
